sensor_id;sensor_type;location;lat;lon;timestamp;pressure;altitude;pressure_sealevel;temperature
61595;BMP280;47397;48.194;11.632;2024-03-23T00:52:22;95353.28;;;9.23
61595;BMP280;47397;48.194;11.632;2024-03-23T00:54:25;95352.69;;;9.15
61595;BMP280;47397;48.194;11.632;2024-03-23T00:55:25;95347.66;;;9.13
61595;BMP280;47397;48.194;11.632;2024-03-23T00:56:27;95341.16;;;9.03
61595;BMP280;47397;48.194;11.632;2024-03-23T00:57:27;95339.50;;;9.02
61595;BMP280;47397;48.194;11.632;2024-03-23T00:58:28;95344.00;;;8.91
61595;BMP280;47397;48.194;11.632;2024-03-23T00:59:28;95339.69;;;8.96
61595;BMP280;47397;48.194;11.632;2024-03-23T01:00:29;95338.50;;;8.75
61595;BMP280;47397;48.194;11.632;2024-03-23T01:01:29;95331.38;;;8.89
61595;BMP280;47397;48.194;11.632;2024-03-23T01:02:29;95334.06;;;8.83
61595;BMP280;47397;48.194;11.632;2024-03-23T01:03:30;95321.53;;;8.78
61595;BMP280;47397;48.194;11.632;2024-03-23T01:04:30;95331.34;;;8.91
61595;BMP280;47397;48.194;11.632;2024-03-23T01:05:31;95338.72;;;8.67
61595;BMP280;47397;48.194;11.632;2024-03-23T01:06:31;95332.91;;;8.64
61595;BMP280;47397;48.194;11.632;2024-03-23T01:07:32;95319.06;;;8.75
61595;BMP280;47397;48.194;11.632;2024-03-23T01:08:32;95318.84;;;8.85
61595;BMP280;47397;48.194;11.632;2024-03-23T01:09:33;95330.47;;;8.59
61595;BMP280;47397;48.194;11.632;2024-03-23T01:10:33;95314.25;;;8.66
61595;BMP280;47397;48.194;11.632;2024-03-23T01:11:35;95324.72;;;8.53
61595;BMP280;47397;48.194;11.632;2024-03-23T01:12:35;95300.34;;;8.49
61595;BMP280;47397;48.194;11.632;2024-03-23T01:13:36;95321.66;;;8.74
61595;BMP280;47397;48.194;11.632;2024-03-23T01:14:36;95317.41;;;9.07
61595;BMP280;47397;48.194;11.632;2024-03-23T01:15:36;95315.72;;;9.37
61595;BMP280;47397;48.194;11.632;2024-03-23T01:16:37;95317.34;;;9.08
61595;BMP280;47397;48.194;11.632;2024-03-23T01:17:37;95314.13;;;9.03
61595;BMP280;47397;48.194;11.632;2024-03-23T01:18:37;95303.78;;;9.11
61595;BMP280;47397;48.194;11.632;2024-03-23T01:19:38;95311.53;;;9.05
61595;BMP280;47397;48.194;11.632;2024-03-23T01:20:38;95312.28;;;9.08
61595;BMP280;47397;48.194;11.632;2024-03-23T01:21:39;95312.59;;;8.98
61595;BMP280;47397;48.194;11.632;2024-03-23T01:22:39;95308.22;;;9.03
61595;BMP280;47397;48.194;11.632;2024-03-23T01:23:39;95305.59;;;9.06
61595;BMP280;47397;48.194;11.632;2024-03-23T01:24:40;95301.66;;;9.25
61595;BMP280;47397;48.194;11.632;2024-03-23T01:25:40;95299.00;;;9.31
61595;BMP280;47397;48.194;11.632;2024-03-23T01:26:42;95306.16;;;9.47
61595;BMP280;47397;48.194;11.632;2024-03-23T01:27:42;95297.94;;;9.38
61595;BMP280;47397;48.194;11.632;2024-03-23T01:28:43;95304.84;;;9.61
61595;BMP280;47397;48.194;11.632;2024-03-23T01:29:43;95308.38;;;9.85
61595;BMP280;47397;48.194;11.632;2024-03-23T01:30:44;95302.56;;;9.82
61595;BMP280;47397;48.194;11.632;2024-03-23T01:31:44;95299.78;;;9.89
61595;BMP280;47397;48.194;11.632;2024-03-23T01:32:44;95295.50;;;9.91
61595;BMP280;47397;48.194;11.632;2024-03-23T01:33:45;95301.25;;;9.96
61595;BMP280;47397;48.194;11.632;2024-03-23T01:34:45;95295.25;;;9.99
61595;BMP280;47397;48.194;11.632;2024-03-23T01:35:46;95294.38;;;10.00
61595;BMP280;47397;48.194;11.632;2024-03-23T01:36:46;95300.44;;;9.96
61595;BMP280;47397;48.194;11.632;2024-03-23T01:37:47;95298.66;;;9.98
61595;BMP280;47397;48.194;11.632;2024-03-23T01:38:47;95299.00;;;9.87
61595;BMP280;47397;48.194;11.632;2024-03-23T01:39:47;95297.16;;;9.92
61595;BMP280;47397;48.194;11.632;2024-03-23T01:40:48;95296.91;;;10.00
61595;BMP280;47397;48.194;11.632;2024-03-23T01:41:50;95277.81;;;9.88
61595;BMP280;47397;48.194;11.632;2024-03-23T01:42:56;95289.53;;;10.20
61595;BMP280;47397;48.194;11.632;2024-03-23T01:43:57;95295.25;;;10.27
61595;BMP280;47397;48.194;11.632;2024-03-23T01:44:57;95288.63;;;10.23
61595;BMP280;47397;48.194;11.632;2024-03-23T01:45:57;95286.13;;;10.21
61595;BMP280;47397;48.194;11.632;2024-03-23T01:46:58;95289.75;;;10.13
61595;BMP280;47397;48.194;11.632;2024-03-23T01:47:58;95288.41;;;10.01
61595;BMP280;47397;48.194;11.632;2024-03-23T01:48:59;95289.97;;;10.07
61595;BMP280;47397;48.194;11.632;2024-03-23T01:49:59;95286.19;;;10.18
61595;BMP280;47397;48.194;11.632;2024-03-23T01:51:00;95282.81;;;10.18
61595;BMP280;47397;48.194;11.632;2024-03-23T01:52:01;95288.50;;;10.26
61595;BMP280;47397;48.194;11.632;2024-03-23T01:53:02;95285.25;;;10.22
61595;BMP280;47397;48.194;11.632;2024-03-23T01:54:06;95290.19;;;10.27
61595;BMP280;47397;48.194;11.632;2024-03-23T01:55:07;95279.41;;;10.19
61595;BMP280;47397;48.194;11.632;2024-03-23T01:56:08;95285.19;;;10.24
61595;BMP280;47397;48.194;11.632;2024-03-23T01:57:10;95289.09;;;10.34
61595;BMP280;47397;48.194;11.632;2024-03-23T01:58:11;95280.53;;;10.37
61595;BMP280;47397;48.194;11.632;2024-03-23T01:59:11;95282.50;;;10.28
61595;BMP280;47397;48.194;11.632;2024-03-23T02:00:13;95275.63;;;10.32
61595;BMP280;47397;48.194;11.632;2024-03-23T02:01:14;95278.59;;;10.45
61595;BMP280;47397;48.194;11.632;2024-03-23T02:02:14;95276.28;;;10.37
61595;BMP280;47397;48.194;11.632;2024-03-23T02:03:24;95277.63;;;10.49
61595;BMP280;47397;48.194;11.632;2024-03-23T02:04:24;95279.78;;;10.59
61595;BMP280;47397;48.194;11.632;2024-03-23T02:05:25;95273.22;;;10.54
61595;BMP280;47397;48.194;11.632;2024-03-23T02:06:25;95270.09;;;10.46
61595;BMP280;47397;48.194;11.632;2024-03-23T02:07:26;95267.91;;;10.35
61595;BMP280;47397;48.194;11.632;2024-03-23T02:08:26;95272.69;;;10.44
61595;BMP280;47397;48.194;11.632;2024-03-23T02:09:27;95265.19;;;10.41
61595;BMP280;47397;48.194;11.632;2024-03-23T02:10:27;95265.06;;;10.44
61595;BMP280;47397;48.194;11.632;2024-03-23T02:11:28;95257.97;;;10.54
61595;BMP280;47397;48.194;11.632;2024-03-23T02:12:29;95259.69;;;10.53
61595;BMP280;47397;48.194;11.632;2024-03-23T02:13:30;95258.31;;;10.68
61595;BMP280;47397;48.194;11.632;2024-03-23T02:14:30;95255.88;;;10.65
61595;BMP280;47397;48.194;11.632;2024-03-23T02:15:31;95263.94;;;10.53
61595;BMP280;47397;48.194;11.632;2024-03-23T02:16:31;95260.50;;;10.54
61595;BMP280;47397;48.194;11.632;2024-03-23T02:17:34;95260.41;;;10.57
61595;BMP280;47397;48.194;11.632;2024-03-23T02:18:35;95251.69;;;10.64
61595;BMP280;47397;48.194;11.632;2024-03-23T02:19:35;95250.06;;;10.61
61595;BMP280;47397;48.194;11.632;2024-03-23T02:20:36;95251.94;;;10.56
61595;BMP280;47397;48.194;11.632;2024-03-23T02:21:36;95253.50;;;10.60
61595;BMP280;47397;48.194;11.632;2024-03-23T02:22:37;95247.69;;;10.57
61595;BMP280;47397;48.194;11.632;2024-03-23T02:23:39;95246.09;;;10.54
61595;BMP280;47397;48.194;11.632;2024-03-23T02:24:39;95251.22;;;10.53
61595;BMP280;47397;48.194;11.632;2024-03-23T02:25:40;95254.69;;;10.50
61595;BMP280;47397;48.194;11.632;2024-03-23T02:26:40;95243.44;;;10.57
61595;BMP280;47397;48.194;11.632;2024-03-23T02:27:41;95247.22;;;10.71
61595;BMP280;47397;48.194;11.632;2024-03-23T02:28:41;95244.25;;;10.83
61595;BMP280;47397;48.194;11.632;2024-03-23T02:29:41;95241.72;;;10.83
61595;BMP280;47397;48.194;11.632;2024-03-23T02:30:42;95241.91;;;10.77
61595;BMP280;47397;48.194;11.632;2024-03-23T02:31:42;95241.31;;;10.70
61595;BMP280;47397;48.194;11.632;2024-03-23T02:32:43;95241.72;;;10.58
61595;BMP280;47397;48.194;11.632;2024-03-23T02:33:43;95236.75;;;10.55
61595;BMP280;47397;48.194;11.632;2024-03-23T02:34:44;95242.94;;;10.48
61595;BMP280;47397;48.194;11.632;2024-03-23T02:35:47;95244.53;;;10.50
61595;BMP280;47397;48.194;11.632;2024-03-23T02:36:47;95233.50;;;10.51
61595;BMP280;47397;48.194;11.632;2024-03-23T02:37:48;95235.25;;;10.49
61595;BMP280;47397;48.194;11.632;2024-03-23T02:38:50;95233.50;;;10.51
61595;BMP280;47397;48.194;11.632;2024-03-23T02:39:50;95231.41;;;10.62
61595;BMP280;47397;48.194;11.632;2024-03-23T02:40:50;95226.09;;;10.45
61595;BMP280;47397;48.194;11.632;2024-03-23T02:41:51;95228.53;;;10.48
61595;BMP280;47397;48.194;11.632;2024-03-23T02:42:52;95231.00;;;10.50
61595;BMP280;47397;48.194;11.632;2024-03-23T02:43:52;95222.50;;;10.51
61595;BMP280;47397;48.194;11.632;2024-03-23T02:44:53;95227.69;;;10.48
61595;BMP280;47397;48.194;11.632;2024-03-23T02:45:53;95216.44;;;10.30
61595;BMP280;47397;48.194;11.632;2024-03-23T02:46:54;95217.97;;;10.34
61595;BMP280;47397;48.194;11.632;2024-03-23T02:47:54;95220.78;;;10.26
61595;BMP280;47397;48.194;11.632;2024-03-23T02:48:55;95218.44;;;10.20
61595;BMP280;47397;48.194;11.632;2024-03-23T02:49:55;95214.56;;;10.09
61595;BMP280;47397;48.194;11.632;2024-03-23T02:50:56;95210.97;;;9.89
61595;BMP280;47397;48.194;11.632;2024-03-23T02:51:56;95212.16;;;10.06
61595;BMP280;47397;48.194;11.632;2024-03-23T02:52:56;95213.03;;;10.05
61595;BMP280;47397;48.194;11.632;2024-03-23T02:53:58;95210.56;;;10.01
61595;BMP280;47397;48.194;11.632;2024-03-23T02:54:58;95206.97;;;10.09
61595;BMP280;47397;48.194;11.632;2024-03-23T02:55:59;95210.44;;;10.06
61595;BMP280;47397;48.194;11.632;2024-03-23T02:56:59;95212.53;;;9.93
61595;BMP280;47397;48.194;11.632;2024-03-23T02:58:00;95208.38;;;9.91
61595;BMP280;47397;48.194;11.632;2024-03-23T02:59:00;95215.31;;;9.86
61595;BMP280;47397;48.194;11.632;2024-03-23T03:00:01;95217.22;;;9.79
61595;BMP280;47397;48.194;11.632;2024-03-23T03:01:01;95211.88;;;9.87
61595;BMP280;47397;48.194;11.632;2024-03-23T03:02:01;95202.81;;;9.80
61595;BMP280;47397;48.194;11.632;2024-03-23T03:03:02;95205.34;;;9.80
61595;BMP280;47397;48.194;11.632;2024-03-23T03:04:03;95210.22;;;9.86
61595;BMP280;47397;48.194;11.632;2024-03-23T03:05:03;95208.31;;;9.92
61595;BMP280;47397;48.194;11.632;2024-03-23T03:06:04;95214.44;;;9.87
61595;BMP280;47397;48.194;11.632;2024-03-23T03:07:05;95203.94;;;9.71
61595;BMP280;47397;48.194;11.632;2024-03-23T03:08:06;95214.00;;;9.74
61595;BMP280;47397;48.194;11.632;2024-03-23T03:09:07;95210.00;;;9.67
61595;BMP280;47397;48.194;11.632;2024-03-23T03:10:08;95209.94;;;9.68
61595;BMP280;47397;48.194;11.632;2024-03-23T03:11:09;95206.75;;;9.62
61595;BMP280;47397;48.194;11.632;2024-03-23T03:12:09;95201.22;;;9.49
61595;BMP280;47397;48.194;11.632;2024-03-23T03:13:09;95203.66;;;9.80
61595;BMP280;47397;48.194;11.632;2024-03-23T03:14:10;95200.56;;;9.70
61595;BMP280;47397;48.194;11.632;2024-03-23T03:15:10;95199.56;;;9.76
61595;BMP280;47397;48.194;11.632;2024-03-23T03:16:11;95193.38;;;9.57
61595;BMP280;47397;48.194;11.632;2024-03-23T03:17:11;95195.81;;;9.60
61595;BMP280;47397;48.194;11.632;2024-03-23T03:18:12;95191.63;;;9.59
61595;BMP280;47397;48.194;11.632;2024-03-23T03:19:12;95193.97;;;9.65
61595;BMP280;47397;48.194;11.632;2024-03-23T03:20:13;95192.22;;;9.67
61595;BMP280;47397;48.194;11.632;2024-03-23T03:21:13;95187.28;;;9.62
61595;BMP280;47397;48.194;11.632;2024-03-23T03:22:13;95190.38;;;9.72
61595;BMP280;47397;48.194;11.632;2024-03-23T03:23:14;95187.16;;;9.67
61595;BMP280;47397;48.194;11.632;2024-03-23T03:24:16;95188.97;;;9.62
61595;BMP280;47397;48.194;11.632;2024-03-23T03:25:16;95190.63;;;9.63
61595;BMP280;47397;48.194;11.632;2024-03-23T03:26:16;95188.78;;;9.69
61595;BMP280;47397;48.194;11.632;2024-03-23T03:27:17;95184.06;;;9.57
61595;BMP280;47397;48.194;11.632;2024-03-23T03:28:17;95186.59;;;9.31
61595;BMP280;47397;48.194;11.632;2024-03-23T03:29:17;95189.47;;;9.47
61595;BMP280;47397;48.194;11.632;2024-03-23T03:30:18;95188.34;;;9.55
61595;BMP280;47397;48.194;11.632;2024-03-23T03:31:19;95186.25;;;9.42
61595;BMP280;47397;48.194;11.632;2024-03-23T03:32:19;95184.59;;;9.40
61595;BMP280;47397;48.194;11.632;2024-03-23T03:33:19;95183.31;;;9.26
61595;BMP280;47397;48.194;11.632;2024-03-23T03:34:20;95183.47;;;9.49
61595;BMP280;47397;48.194;11.632;2024-03-23T03:35:20;95182.53;;;9.52
61595;BMP280;47397;48.194;11.632;2024-03-23T03:36:21;95178.69;;;9.40
61595;BMP280;47397;48.194;11.632;2024-03-23T03:37:21;95175.78;;;9.24
61595;BMP280;47397;48.194;11.632;2024-03-23T03:38:22;95171.81;;;9.16
61595;BMP280;47397;48.194;11.632;2024-03-23T03:39:24;95173.84;;;9.04
61595;BMP280;47397;48.194;11.632;2024-03-23T03:40:24;95175.41;;;9.36
61595;BMP280;47397;48.194;11.632;2024-03-23T03:41:25;95168.84;;;9.31
61595;BMP280;47397;48.194;11.632;2024-03-23T03:42:25;95173.97;;;9.28
61595;BMP280;47397;48.194;11.632;2024-03-23T03:43:25;95179.88;;;9.28
61595;BMP280;47397;48.194;11.632;2024-03-23T03:44:26;95171.28;;;9.34
61595;BMP280;47397;48.194;11.632;2024-03-23T03:45:26;95174.78;;;9.28
61595;BMP280;47397;48.194;11.632;2024-03-23T03:46:27;95171.53;;;9.25
61595;BMP280;47397;48.194;11.632;2024-03-23T03:47:28;95161.38;;;9.25
61595;BMP280;47397;48.194;11.632;2024-03-23T03:48:28;95161.13;;;9.06
61595;BMP280;47397;48.194;11.632;2024-03-23T03:49:29;95158.31;;;9.15
61595;BMP280;47397;48.194;11.632;2024-03-23T03:50:29;95155.56;;;8.95
61595;BMP280;47397;48.194;11.632;2024-03-23T03:51:30;95162.44;;;8.90
61595;BMP280;47397;48.194;11.632;2024-03-23T03:52:30;95159.75;;;8.96
61595;BMP280;47397;48.194;11.632;2024-03-23T03:53:31;95161.91;;;8.78
61595;BMP280;47397;48.194;11.632;2024-03-23T03:54:33;95160.16;;;8.81
61595;BMP280;47397;48.194;11.632;2024-03-23T03:55:33;95159.13;;;8.88
61595;BMP280;47397;48.194;11.632;2024-03-23T03:56:35;95149.03;;;8.86
61595;BMP280;47397;48.194;11.632;2024-03-23T03:57:36;95153.06;;;8.92
61595;BMP280;47397;48.194;11.632;2024-03-23T03:58:36;95150.72;;;8.86
61595;BMP280;47397;48.194;11.632;2024-03-23T03:59:37;95156.53;;;8.89
61595;BMP280;47397;48.194;11.632;2024-03-23T04:00:37;95144.31;;;8.74
61595;BMP280;47397;48.194;11.632;2024-03-23T04:01:37;95159.19;;;8.85
61595;BMP280;47397;48.194;11.632;2024-03-23T04:02:38;95153.13;;;8.90
61595;BMP280;47397;48.194;11.632;2024-03-23T04:03:38;95143.22;;;8.83
61595;BMP280;47397;48.194;11.632;2024-03-23T04:04:39;95146.09;;;9.00
61595;BMP280;47397;48.194;11.632;2024-03-23T04:05:39;95147.53;;;9.08
61595;BMP280;47397;48.194;11.632;2024-03-23T04:06:40;95144.75;;;9.16
61595;BMP280;47397;48.194;11.632;2024-03-23T04:07:40;95143.38;;;9.06
61595;BMP280;47397;48.194;11.632;2024-03-23T04:08:40;95141.09;;;8.98
61595;BMP280;47397;48.194;11.632;2024-03-23T04:09:42;95137.31;;;8.82
61595;BMP280;47397;48.194;11.632;2024-03-23T04:10:43;95132.66;;;8.98
61595;BMP280;47397;48.194;11.632;2024-03-23T04:11:43;95127.53;;;8.99
61595;BMP280;47397;48.194;11.632;2024-03-23T04:12:44;95129.84;;;9.07
61595;BMP280;47397;48.194;11.632;2024-03-23T04:13:44;95142.06;;;9.21
61595;BMP280;47397;48.194;11.632;2024-03-23T04:14:44;95133.66;;;9.20
61595;BMP280;47397;48.194;11.632;2024-03-23T04:15:45;95129.44;;;9.19
61595;BMP280;47397;48.194;11.632;2024-03-23T04:16:46;95130.91;;;9.26
61595;BMP280;47397;48.194;11.632;2024-03-23T04:17:46;95127.59;;;9.24
61595;BMP280;47397;48.194;11.632;2024-03-23T04:18:46;95122.03;;;9.41
61595;BMP280;47397;48.194;11.632;2024-03-23T04:19:47;95118.41;;;9.48
61595;BMP280;47397;48.194;11.632;2024-03-23T04:20:48;95120.13;;;9.48
61595;BMP280;47397;48.194;11.632;2024-03-23T04:21:48;95106.81;;;9.41
61595;BMP280;47397;48.194;11.632;2024-03-23T04:22:48;95105.03;;;9.43
61595;BMP280;47397;48.194;11.632;2024-03-23T04:23:49;95106.75;;;9.69
61595;BMP280;47397;48.194;11.632;2024-03-23T04:24:51;95103.44;;;9.67
61595;BMP280;47397;48.194;11.632;2024-03-23T04:25:51;95110.13;;;9.69
61595;BMP280;47397;48.194;11.632;2024-03-23T04:26:51;95106.75;;;9.69
61595;BMP280;47397;48.194;11.632;2024-03-23T04:27:52;95102.50;;;9.69
61595;BMP280;47397;48.194;11.632;2024-03-23T04:28:53;95096.56;;;9.70
61595;BMP280;47397;48.194;11.632;2024-03-23T04:29:54;95094.06;;;9.94
61595;BMP280;47397;48.194;11.632;2024-03-23T04:30:54;95097.63;;;9.88
61595;BMP280;47397;48.194;11.632;2024-03-23T04:31:55;95107.00;;;9.86
61595;BMP280;47397;48.194;11.632;2024-03-23T04:32:55;95091.94;;;9.82
61595;BMP280;47397;48.194;11.632;2024-03-23T04:33:55;95083.03;;;9.70
61595;BMP280;47397;48.194;11.632;2024-03-23T04:34:56;95095.63;;;9.73
61595;BMP280;47397;48.194;11.632;2024-03-23T04:35:56;95089.00;;;9.69
61595;BMP280;47397;48.194;11.632;2024-03-23T04:36:57;95098.81;;;9.78
61595;BMP280;47397;48.194;11.632;2024-03-23T04:37:57;95095.50;;;9.76
61595;BMP280;47397;48.194;11.632;2024-03-23T04:38:59;95097.16;;;9.77
61595;BMP280;47397;48.194;11.632;2024-03-23T04:40:01;95094.41;;;9.83
61595;BMP280;47397;48.194;11.632;2024-03-23T04:41:02;95088.47;;;9.84
61595;BMP280;47397;48.194;11.632;2024-03-23T04:42:02;95093.50;;;9.86
61595;BMP280;47397;48.194;11.632;2024-03-23T04:43:03;95079.72;;;9.93
61595;BMP280;47397;48.194;11.632;2024-03-23T04:44:04;95082.28;;;9.91
61595;BMP280;47397;48.194;11.632;2024-03-23T04:45:05;95079.53;;;9.97
61595;BMP280;47397;48.194;11.632;2024-03-23T04:46:05;95074.63;;;9.93
61595;BMP280;47397;48.194;11.632;2024-03-23T04:47:06;95071.44;;;9.88
61595;BMP280;47397;48.194;11.632;2024-03-23T04:48:07;95081.16;;;10.00
61595;BMP280;47397;48.194;11.632;2024-03-23T04:49:07;95079.53;;;9.97
61595;BMP280;47397;48.194;11.632;2024-03-23T04:50:08;95071.25;;;9.92
61595;BMP280;47397;48.194;11.632;2024-03-23T04:51:09;95073.63;;;9.97
61595;BMP280;47397;48.194;11.632;2024-03-23T04:52:10;95065.19;;;9.96
61595;BMP280;47397;48.194;11.632;2024-03-23T04:53:10;95068.88;;;10.13
61595;BMP280;47397;48.194;11.632;2024-03-23T04:54:10;95067.00;;;10.18
61595;BMP280;47397;48.194;11.632;2024-03-23T04:55:12;95068.53;;;10.23
61595;BMP280;47397;48.194;11.632;2024-03-23T04:56:13;95065.16;;;10.23
61595;BMP280;47397;48.194;11.632;2024-03-23T04:57:13;95063.56;;;10.20
61595;BMP280;47397;48.194;11.632;2024-03-23T04:58:14;95062.56;;;10.24
61595;BMP280;47397;48.194;11.632;2024-03-23T04:59:14;95062.75;;;10.18
61595;BMP280;47397;48.194;11.632;2024-03-23T05:00:15;95057.78;;;10.15
61595;BMP280;47397;48.194;11.632;2024-03-23T05:01:16;95058.50;;;10.19
61595;BMP280;47397;48.194;11.632;2024-03-23T05:02:16;95056.41;;;10.30
61595;BMP280;47397;48.194;11.632;2024-03-23T05:03:16;95049.69;;;10.29
61595;BMP280;47397;48.194;11.632;2024-03-23T05:04:17;95051.34;;;10.30
61595;BMP280;47397;48.194;11.632;2024-03-23T05:05:17;95045.91;;;10.41
61595;BMP280;47397;48.194;11.632;2024-03-23T05:06:18;95041.00;;;10.34
61595;BMP280;47397;48.194;11.632;2024-03-23T05:07:18;95039.03;;;10.43
61595;BMP280;47397;48.194;11.632;2024-03-23T05:08:19;95034.84;;;10.42
61595;BMP280;47397;48.194;11.632;2024-03-23T05:09:19;95032.97;;;10.47
61595;BMP280;47397;48.194;11.632;2024-03-23T05:10:21;95025.13;;;10.29
61595;BMP280;47397;48.194;11.632;2024-03-23T05:11:21;95019.75;;;10.37
61595;BMP280;47397;48.194;11.632;2024-03-23T05:12:22;95033.13;;;10.42
61595;BMP280;47397;48.194;11.632;2024-03-23T05:13:22;95038.28;;;10.41
61595;BMP280;47397;48.194;11.632;2024-03-23T05:14:23;95022.63;;;10.28
61595;BMP280;47397;48.194;11.632;2024-03-23T05:15:24;95030.09;;;10.32
61595;BMP280;47397;48.194;11.632;2024-03-23T05:16:24;95024.19;;;10.32
61595;BMP280;47397;48.194;11.632;2024-03-23T05:17:25;95021.59;;;10.33
61595;BMP280;47397;48.194;11.632;2024-03-23T05:18:25;95029.72;;;10.43
61595;BMP280;47397;48.194;11.632;2024-03-23T05:19:25;95031.97;;;10.51
61595;BMP280;47397;48.194;11.632;2024-03-23T05:20:26;95025.06;;;10.54
61595;BMP280;47397;48.194;11.632;2024-03-23T05:21:27;95030.00;;;10.57
61595;BMP280;47397;48.194;11.632;2024-03-23T05:22:27;95036.47;;;10.66
61595;BMP280;47397;48.194;11.632;2024-03-23T05:23:28;95034.75;;;10.67
61595;BMP280;47397;48.194;11.632;2024-03-23T05:24:29;95030.50;;;10.67
61595;BMP280;47397;48.194;11.632;2024-03-23T05:25:33;95034.81;;;10.65
61595;BMP280;47397;48.194;11.632;2024-03-23T05:26:35;95026.88;;;10.73
61595;BMP280;47397;48.194;11.632;2024-03-23T05:27:35;95028.59;;;10.72
61595;BMP280;47397;48.194;11.632;2024-03-23T05:28:36;95028.91;;;10.64
61595;BMP280;47397;48.194;11.632;2024-03-23T05:29:36;95026.22;;;10.68
61595;BMP280;47397;48.194;11.632;2024-03-23T05:30:37;95027.53;;;10.78
61595;BMP280;47397;48.194;11.632;2024-03-23T05:31:37;95031.47;;;10.86
61595;BMP280;47397;48.194;11.632;2024-03-23T05:32:38;95026.25;;;10.89
61595;BMP280;47397;48.194;11.632;2024-03-23T05:33:38;95031.41;;;10.88
61595;BMP280;47397;48.194;11.632;2024-03-23T05:34:39;95025.50;;;10.87
61595;BMP280;47397;48.194;11.632;2024-03-23T05:35:39;95027.91;;;10.90
61595;BMP280;47397;48.194;11.632;2024-03-23T05:36:40;95027.66;;;10.96
61595;BMP280;47397;48.194;11.632;2024-03-23T05:37:40;95022.13;;;10.87
61595;BMP280;47397;48.194;11.632;2024-03-23T05:38:41;95027.09;;;10.90
61595;BMP280;47397;48.194;11.632;2024-03-23T05:39:41;95026.00;;;10.95
61595;BMP280;47397;48.194;11.632;2024-03-23T05:40:53;95020.94;;;10.95
61595;BMP280;47397;48.194;11.632;2024-03-23T05:41:53;95031.81;;;10.99
61595;BMP280;47397;48.194;11.632;2024-03-23T05:42:54;95032.38;;;11.06
61595;BMP280;47397;48.194;11.632;2024-03-23T05:43:54;95024.81;;;11.04
61595;BMP280;47397;48.194;11.632;2024-03-23T05:44:55;95026.84;;;11.18
61595;BMP280;47397;48.194;11.632;2024-03-23T05:45:56;95012.41;;;11.18
61595;BMP280;47397;48.194;11.632;2024-03-23T05:46:56;95021.50;;;11.24
61595;BMP280;47397;48.194;11.632;2024-03-23T05:47:57;95031.97;;;11.16
61595;BMP280;47397;48.194;11.632;2024-03-23T05:49:01;95020.66;;;11.23
61595;BMP280;47397;48.194;11.632;2024-03-23T05:50:02;95011.97;;;11.07
61595;BMP280;47397;48.194;11.632;2024-03-23T05:51:06;95014.94;;;11.18
61595;BMP280;47397;48.194;11.632;2024-03-23T05:52:07;95009.59;;;11.24
61595;BMP280;47397;48.194;11.632;2024-03-23T05:53:08;94997.28;;;11.15
61595;BMP280;47397;48.194;11.632;2024-03-23T05:54:08;95010.50;;;11.23
61595;BMP280;47397;48.194;11.632;2024-03-23T05:55:11;95011.56;;;11.18
61595;BMP280;47397;48.194;11.632;2024-03-23T05:56:13;94995.59;;;11.14
61595;BMP280;47397;48.194;11.632;2024-03-23T05:57:14;95000.66;;;11.14
61595;BMP280;47397;48.194;11.632;2024-03-23T05:58:15;95011.19;;;11.27
61595;BMP280;47397;48.194;11.632;2024-03-23T05:59:16;95006.50;;;11.38
61595;BMP280;47397;48.194;11.632;2024-03-23T06:00:17;94998.41;;;11.28
61595;BMP280;47397;48.194;11.632;2024-03-23T06:01:18;94998.28;;;11.32
61595;BMP280;47397;48.194;11.632;2024-03-23T06:02:18;94989.75;;;11.33
61595;BMP280;47397;48.194;11.632;2024-03-23T06:03:19;95002.22;;;11.39
61595;BMP280;47397;48.194;11.632;2024-03-23T06:04:20;94990.91;;;11.46
61595;BMP280;47397;48.194;11.632;2024-03-23T06:05:20;94992.31;;;11.53
61595;BMP280;47397;48.194;11.632;2024-03-23T06:06:20;94996.88;;;11.65
61595;BMP280;47397;48.194;11.632;2024-03-23T06:07:21;94984.94;;;11.67
61595;BMP280;47397;48.194;11.632;2024-03-23T06:08:21;94992.00;;;11.81
61595;BMP280;47397;48.194;11.632;2024-03-23T06:09:22;94983.09;;;11.91
61595;BMP280;47397;48.194;11.632;2024-03-23T06:10:23;94979.94;;;11.84
61595;BMP280;47397;48.194;11.632;2024-03-23T06:11:24;94972.00;;;11.72
61595;BMP280;47397;48.194;11.632;2024-03-23T06:12:27;94967.59;;;11.75
61595;BMP280;47397;48.194;11.632;2024-03-23T06:13:27;94980.47;;;11.72
61595;BMP280;47397;48.194;11.632;2024-03-23T06:14:31;94982.38;;;11.87
61595;BMP280;47397;48.194;11.632;2024-03-23T06:15:31;94964.38;;;11.92
61595;BMP280;47397;48.194;11.632;2024-03-23T06:16:35;94973.81;;;12.09
61595;BMP280;47397;48.194;11.632;2024-03-23T06:17:35;94977.16;;;12.09
61595;BMP280;47397;48.194;11.632;2024-03-23T06:18:36;94976.00;;;12.16
61595;BMP280;47397;48.194;11.632;2024-03-23T06:19:36;94967.81;;;12.10
61595;BMP280;47397;48.194;11.632;2024-03-23T06:20:37;94972.75;;;12.13
61595;BMP280;47397;48.194;11.632;2024-03-23T06:21:37;94969.75;;;12.05
61595;BMP280;47397;48.194;11.632;2024-03-23T06:22:43;94967.81;;;12.10
61595;BMP280;47397;48.194;11.632;2024-03-23T06:23:45;94965.75;;;12.18
61595;BMP280;47397;48.194;11.632;2024-03-23T06:24:46;94955.63;;;12.16
61595;BMP280;47397;48.194;11.632;2024-03-23T06:25:50;94957.00;;;12.24
61595;BMP280;47397;48.194;11.632;2024-03-23T06:26:55;94960.13;;;12.30
61595;BMP280;47397;48.194;11.632;2024-03-23T06:27:56;94951.06;;;12.42
61595;BMP280;47397;48.194;11.632;2024-03-23T06:28:57;94950.09;;;12.44
61595;BMP280;47397;48.194;11.632;2024-03-23T06:30:03;94949.28;;;12.44
61595;BMP280;47397;48.194;11.632;2024-03-23T06:31:11;94949.81;;;12.50
61595;BMP280;47397;48.194;11.632;2024-03-23T06:32:12;94953.06;;;12.54
61595;BMP280;47397;48.194;11.632;2024-03-23T06:33:13;94954.69;;;12.55
61595;BMP280;47397;48.194;11.632;2024-03-23T06:34:15;94941.06;;;12.56
61595;BMP280;47397;48.194;11.632;2024-03-23T06:35:16;94954.28;;;12.64
61595;BMP280;47397;48.194;11.632;2024-03-23T06:36:19;94942.16;;;12.69
61595;BMP280;47397;48.194;11.632;2024-03-23T06:37:19;94941.63;;;12.80
61595;BMP280;47397;48.194;11.632;2024-03-23T06:38:22;94936.91;;;12.90
61595;BMP280;47397;48.194;11.632;2024-03-23T06:39:23;94930.63;;;12.97
61595;BMP280;47397;48.194;11.632;2024-03-23T06:40:23;94923.28;;;13.08